sensor_id;sensor_type;location;lat;lon;timestamp;pressure;altitude;pressure_sealevel;temperature;humidity
30724;BME280;17473;52.286;20.930;2023-02-03T00:02:13;100643.38;;;2.92;82.14
30724;BME280;17473;52.286;20.930;2023-02-03T00:04:41;100644.66;;;2.86;81.77
30724;BME280;17473;52.286;20.930;2023-02-03T00:07:10;100639.53;;;2.87;81.50
30724;BME280;17473;52.286;20.930;2023-02-03T00:09:39;100629.66;;;2.95;81.17
30724;BME280;17473;52.286;20.930;2023-02-03T00:12:07;100632.72;;;2.89;80.77
30724;BME280;17473;52.286;20.930;2023-02-03T00:14:35;100628.00;;;2.84;80.72
30724;BME280;17473;52.286;20.930;2023-02-03T00:17:04;100640.25;;;2.85;80.24
30724;BME280;17473;52.286;20.930;2023-02-03T00:19:31;100643.13;;;2.76;80.19
30724;BME280;17473;52.286;20.930;2023-02-03T00:21:58;100639.13;;;2.81;79.74
30724;BME280;17473;52.286;20.930;2023-02-03T00:24:26;100646.53;;;2.75;79.54
30724;BME280;17473;52.286;20.930;2023-02-03T00:26:53;100648.72;;;2.69;79.82
30724;BME280;17473;52.286;20.930;2023-02-03T00:29:20;100647.81;;;2.68;79.57
30724;BME280;17473;52.286;20.930;2023-02-03T00:31:52;100638.97;;;2.66;79.39
30724;BME280;17473;52.286;20.930;2023-02-03T00:34:20;100646.22;;;2.70;79.05
30724;BME280;17473;52.286;20.930;2023-02-03T00:36:47;100644.56;;;2.59;79.12
30724;BME280;17473;52.286;20.930;2023-02-03T00:39:15;100644.25;;;2.54;79.29
30724;BME280;17473;52.286;20.930;2023-02-03T00:41:42;100646.63;;;2.51;79.20
30724;BME280;17473;52.286;20.930;2023-02-03T00:44:09;100652.66;;;2.50;79.30
30724;BME280;17473;52.286;20.930;2023-02-03T00:46:36;100646.94;;;2.30;79.59
30724;BME280;17473;52.286;20.930;2023-02-03T00:49:04;100653.72;;;2.28;79.66
30724;BME280;17473;52.286;20.930;2023-02-03T00:51:33;100665.19;;;2.30;79.71
30724;BME280;17473;52.286;20.930;2023-02-03T00:54:00;100671.41;;;2.32;79.45
30724;BME280;17473;52.286;20.930;2023-02-03T00:56:27;100671.50;;;2.34;79.28
30724;BME280;17473;52.286;20.930;2023-02-03T00:58:54;100671.59;;;2.35;79.01
30724;BME280;17473;52.286;20.930;2023-02-03T01:01:21;100664.28;;;2.18;79.70
30724;BME280;17473;52.286;20.930;2023-02-03T01:03:49;100661.81;;;2.08;79.86
30724;BME280;17473;52.286;20.930;2023-02-03T01:06:19;100671.41;;;2.21;79.77
30724;BME280;17473;52.286;20.930;2023-02-03T01:08:47;100668.94;;;2.22;79.42
30724;BME280;17473;52.286;20.930;2023-02-03T01:11:19;100668.25;;;2.25;79.71
30724;BME280;17473;52.286;20.930;2023-02-03T01:13:47;100670.19;;;2.15;79.84
30724;BME280;17473;52.286;20.930;2023-02-03T01:16:17;100677.31;;;2.18;80.10
30724;BME280;17473;52.286;20.930;2023-02-03T01:18:46;100673.91;;;2.19;79.91
30724;BME280;17473;52.286;20.930;2023-02-03T01:21:20;100678.75;;;2.26;79.81
30724;BME280;17473;52.286;20.930;2023-02-03T01:23:47;100670.59;;;2.33;79.35
30724;BME280;17473;52.286;20.930;2023-02-03T01:26:19;100672.53;;;2.24;79.53
30724;BME280;17473;52.286;20.930;2023-02-03T01:28:58;100670.53;;;2.20;79.95
30724;BME280;17473;52.286;20.930;2023-02-03T01:31:32;100668.47;;;2.28;79.80
30724;BME280;17473;52.286;20.930;2023-02-03T01:34:11;100678.72;;;2.38;79.36
30724;BME280;17473;52.286;20.930;2023-02-03T01:36:38;100685.06;;;2.54;78.70
30724;BME280;17473;52.286;20.930;2023-02-03T01:39:06;100685.53;;;2.48;78.97
30724;BME280;17473;52.286;20.930;2023-02-03T01:41:37;100683.63;;;2.45;78.99
30724;BME280;17473;52.286;20.930;2023-02-03T01:47:10;100669.47;;;2.42;79.21
30724;BME280;17473;52.286;20.930;2023-02-03T01:49:44;100670.06;;;2.51;78.63
30724;BME280;17473;52.286;20.930;2023-02-03T01:52:13;100652.53;;;2.48;78.63
30724;BME280;17473;52.286;20.930;2023-02-03T01:54:44;100655.25;;;2.50;78.11
30724;BME280;17473;52.286;20.930;2023-02-03T01:57:49;100655.69;;;2.56;77.20
30724;BME280;17473;52.286;20.930;2023-02-03T02:00:14;100663.66;;;2.46;77.13
30724;BME280;17473;52.286;20.930;2023-02-03T02:02:44;100658.00;;;2.40;76.87
30724;BME280;17473;52.286;20.930;2023-02-03T02:05:40;100659.47;;;2.48;76.27
30724;BME280;17473;52.286;20.930;2023-02-03T02:08:11;100662.72;;;2.57;75.00
30724;BME280;17473;52.286;20.930;2023-02-03T02:10:39;100662.00;;;2.60;74.35
30724;BME280;17473;52.286;20.930;2023-02-03T02:13:06;100649.22;;;2.51;74.27
30724;BME280;17473;52.286;20.930;2023-02-03T02:16:05;100649.13;;;2.49;73.96
30724;BME280;17473;52.286;20.930;2023-02-03T02:30:45;100640.34;;;2.35;74.39
30724;BME280;17473;52.286;20.930;2023-02-03T02:33:43;100643.06;;;2.37;73.91
30724;BME280;17473;52.286;20.930;2023-02-03T02:47:35;100621.34;;;2.25;74.11
30724;BME280;17473;52.286;20.930;2023-02-03T02:50:15;100614.56;;;2.15;74.40
30724;BME280;17473;52.286;20.930;2023-02-03T02:52:46;100626.44;;;2.23;73.96
30724;BME280;17473;52.286;20.930;2023-02-03T02:55:22;100624.84;;;2.25;74.06
30724;BME280;17473;52.286;20.930;2023-02-03T02:57:54;100621.44;;;2.26;73.75
30724;BME280;17473;52.286;20.930;2023-02-03T03:00:23;100623.50;;;2.18;74.12
30724;BME280;17473;52.286;20.930;2023-02-03T03:02:51;100623.41;;;2.05;74.46
30724;BME280;17473;52.286;20.930;2023-02-03T03:05:18;100619.59;;;2.00;74.60
30724;BME280;17473;52.286;20.930;2023-02-03T03:07:54;100630.44;;;2.06;74.75
30724;BME280;17473;52.286;20.930;2023-02-03T03:10:25;100628.19;;;1.99;74.75
30724;BME280;17473;52.286;20.930;2023-02-03T03:13:00;100629.88;;;1.98;75.06
30724;BME280;17473;52.286;20.930;2023-02-03T03:15:31;100623.31;;;2.03;74.69
30724;BME280;17473;52.286;20.930;2023-02-03T03:18:11;100624.34;;;1.94;75.04
30724;BME280;17473;52.286;20.930;2023-02-03T03:20:40;100622.19;;;2.00;74.76
30724;BME280;17473;52.286;20.930;2023-02-03T03:23:21;100628.56;;;1.92;75.03
30724;BME280;17473;52.286;20.930;2023-02-03T03:26:45;100628.09;;;1.85;75.46
30724;BME280;17473;52.286;20.930;2023-02-03T03:29:05;100633.06;;;1.70;75.75
30724;BME280;17473;52.286;20.930;2023-02-03T03:31:33;100621.56;;;1.79;75.59
30724;BME280;17473;52.286;20.930;2023-02-03T03:34:01;100610.91;;;1.76;75.52
30724;BME280;17473;52.286;20.930;2023-02-03T03:39:35;100605.91;;;1.67;76.15
30724;BME280;17473;52.286;20.930;2023-02-03T03:42:20;100610.34;;;1.68;75.95
30724;BME280;17473;52.286;20.930;2023-02-03T03:50:31;100600.16;;;1.59;76.18
30724;BME280;17473;52.286;20.930;2023-02-03T03:53:02;100600.72;;;1.67;75.54
30724;BME280;17473;52.286;20.930;2023-02-03T03:55:32;100594.38;;;1.63;75.92
30724;BME280;17473;52.286;20.930;2023-02-03T03:58:11;100607.66;;;1.54;75.88
30724;BME280;17473;52.286;20.930;2023-02-03T04:00:41;100607.66;;;1.54;75.97
30724;BME280;17473;52.286;20.930;2023-02-03T04:03:16;100601.31;;;1.51;75.84
30724;BME280;17473;52.286;20.930;2023-02-03T04:05:45;100605.72;;;1.52;75.75
30724;BME280;17473;52.286;20.930;2023-02-03T04:08:12;100604.69;;;1.50;75.93
30724;BME280;17473;52.286;20.930;2023-02-03T04:10:41;100602.88;;;1.49;75.60
30724;BME280;17473;52.286;20.930;2023-02-03T04:13:10;100606.63;;;1.40;76.03
30724;BME280;17473;52.286;20.930;2023-02-03T04:15:38;100610.56;;;1.35;76.07
30724;BME280;17473;52.286;20.930;2023-02-03T04:18:05;100610.25;;;1.43;75.75
30724;BME280;17473;52.286;20.930;2023-02-03T04:20:33;100612.28;;;1.47;75.61
30724;BME280;17473;52.286;20.930;2023-02-03T04:23:00;100613.31;;;1.37;75.95
30724;BME280;17473;52.286;20.930;2023-02-03T04:25:27;100613.50;;;1.40;75.68
30724;BME280;17473;52.286;20.930;2023-02-03T04:27:55;100611.50;;;1.36;75.88
30724;BME280;17473;52.286;20.930;2023-02-03T04:30:22;100614.19;;;1.37;75.77
30724;BME280;17473;52.286;20.930;2023-02-03T04:32:50;100614.31;;;1.39;75.53
30724;BME280;17473;52.286;20.930;2023-02-03T04:35:17;100610.78;;;1.15;76.44
30724;BME280;17473;52.286;20.930;2023-02-03T04:37:45;100616.44;;;1.21;76.37
30724;BME280;17473;52.286;20.930;2023-02-03T04:40:13;100612.38;;;1.24;76.42
30724;BME280;17473;52.286;20.930;2023-02-03T04:42:40;100610.00;;;1.28;76.22
30724;BME280;17473;52.286;20.930;2023-02-03T04:45:09;100615.06;;;1.26;76.17
30724;BME280;17473;52.286;20.930;2023-02-03T04:47:37;100609.44;;;1.20;76.15
30724;BME280;17473;52.286;20.930;2023-02-03T04:50:05;100608.28;;;1.16;76.20
30724;BME280;17473;52.286;20.930;2023-02-03T04:52:32;100611.78;;;1.17;76.27
30724;BME280;17473;52.286;20.930;2023-02-03T04:54:59;100605.25;;;1.10;76.45
30724;BME280;17473;52.286;20.930;2023-02-03T04:57:27;100605.78;;;1.06;76.60
30724;BME280;17473;52.286;20.930;2023-02-03T04:59:54;100602.06;;;1.14;76.61
30724;BME280;17473;52.286;20.930;2023-02-03T05:02:21;100597.44;;;1.10;76.49
30724;BME280;17473;52.286;20.930;2023-02-03T05:04:49;100594.34;;;1.04;76.95
30724;BME280;17473;52.286;20.930;2023-02-03T05:07:16;100590.63;;;1.00;77.23
30724;BME280;17473;52.286;20.930;2023-02-03T05:09:43;100596.41;;;0.96;77.54
30724;BME280;17473;52.286;20.930;2023-02-03T05:12:10;100598.78;;;1.05;77.45
30724;BME280;17473;52.286;20.930;2023-02-03T05:14:37;100585.84;;;0.94;77.68
30724;BME280;17473;52.286;20.930;2023-02-03T05:17:04;100584.19;;;1.07;77.50
30724;BME280;17473;52.286;20.930;2023-02-03T05:19:31;100584.44;;;0.98;77.83
30724;BME280;17473;52.286;20.930;2023-02-03T05:21:58;100583.75;;;1.01;77.83
30724;BME280;17473;52.286;20.930;2023-02-03T05:24:26;100575.03;;;1.00;78.08
30724;BME280;17473;52.286;20.930;2023-02-03T05:26:53;100571.28;;;0.97;78.47
30724;BME280;17473;52.286;20.930;2023-02-03T05:29:20;100571.28;;;0.97;78.66
30724;BME280;17473;52.286;20.930;2023-02-03T05:31:47;100561.56;;;0.94;78.59
30724;BME280;17473;52.286;20.930;2023-02-03T05:34:14;100566.09;;;1.08;78.52
30724;BME280;17473;52.286;20.930;2023-02-03T05:36:41;100563.72;;;1.00;78.72
30724;BME280;17473;52.286;20.930;2023-02-03T05:39:08;100564.41;;;1.09;78.65
30724;BME280;17473;52.286;20.930;2023-02-03T05:41:35;100553.78;;;1.06;78.73
30724;BME280;17473;52.286;20.930;2023-02-03T05:44:26;100559.66;;;1.03;79.21
30724;BME280;17473;52.286;20.930;2023-02-03T05:46:56;100555.22;;;1.02;79.06
30724;BME280;17473;52.286;20.930;2023-02-03T05:49:23;100554.56;;;1.05;79.26
30724;BME280;17473;52.286;20.930;2023-02-03T05:51:54;100549.34;;;1.05;79.33
30724;BME280;17473;52.286;20.930;2023-02-03T05:54:21;100554.22;;;1.00;79.47
30724;BME280;17473;52.286;20.930;2023-02-03T05:56:49;100553.88;;;0.96;79.70
30724;BME280;17473;52.286;20.930;2023-02-03T05:59:16;100553.66;;;0.92;79.90
30724;BME280;17473;52.286;20.930;2023-02-03T06:01:43;100549.69;;;0.98;79.90
30724;BME280;17473;52.286;20.930;2023-02-03T06:04:10;100546.53;;;1.02;79.74
30724;BME280;17473;52.286;20.930;2023-02-03T06:06:37;100542.22;;;1.02;79.50
30724;BME280;17473;52.286;20.930;2023-02-03T06:09:07;100559.75;;;1.05;79.77
30724;BME280;17473;52.286;20.930;2023-02-03T06:11:35;100553.41;;;1.01;79.92
30724;BME280;17473;52.286;20.930;2023-02-03T06:14:03;100553.22;;;1.10;79.95
30724;BME280;17473;52.286;20.930;2023-02-03T06:16:30;100545.53;;;1.12;79.97
30724;BME280;17473;52.286;20.930;2023-02-03T06:18:57;100542.03;;;1.11;80.23
30724;BME280;17473;52.286;20.930;2023-02-03T06:21:27;100537.16;;;1.16;80.52
30724;BME280;17473;52.286;20.930;2023-02-03T06:23:54;100526.09;;;1.06;80.55
30724;BME280;17473;52.286;20.930;2023-02-03T06:26:23;100528.09;;;1.11;80.61
30724;BME280;17473;52.286;20.930;2023-02-03T06:28:51;100524.25;;;1.17;80.57
30724;BME280;17473;52.286;20.930;2023-02-03T06:31:18;100526.53;;;1.13;80.83
30724;BME280;17473;52.286;20.930;2023-02-03T06:33:45;100518.38;;;1.20;80.54
30724;BME280;17473;52.286;20.930;2023-02-03T06:36:12;100515.78;;;1.20;80.59
30724;BME280;17473;52.286;20.930;2023-02-03T06:38:39;100508.41;;;1.26;80.69
30724;BME280;17473;52.286;20.930;2023-02-03T06:41:07;100503.00;;;1.23;80.49
30724;BME280;17473;52.286;20.930;2023-02-03T06:43:34;100505.94;;;1.28;80.76
30724;BME280;17473;52.286;20.930;2023-02-03T06:46:01;100501.75;;;1.30;80.50
30724;BME280;17473;52.286;20.930;2023-02-03T06:48:28;100503.31;;;1.39;80.55
30724;BME280;17473;52.286;20.930;2023-02-03T06:50:55;100496.84;;;1.46;79.69
30724;BME280;17473;52.286;20.930;2023-02-03T06:53:22;100492.19;;;1.54;79.85
30724;BME280;17473;52.286;20.930;2023-02-03T06:55:50;100488.09;;;1.69;79.46
30724;BME280;17473;52.286;20.930;2023-02-03T06:58:17;100488.06;;;1.81;79.21
30724;BME280;17473;52.286;20.930;2023-02-03T07:00:44;100476.00;;;1.95;78.49
30724;BME280;17473;52.286;20.930;2023-02-03T07:03:11;100474.22;;;2.08;78.06
30724;BME280;17473;52.286;20.930;2023-02-03T07:05:38;100475.47;;;2.13;77.37
30724;BME280;17473;52.286;20.930;2023-02-03T07:08:06;100468.22;;;2.34;77.06
30724;BME280;17473;52.286;20.930;2023-02-03T07:10:33;100464.63;;;2.45;76.14
30724;BME280;17473;52.286;20.930;2023-02-03T07:13:05;100457.75;;;2.59;75.60
30724;BME280;17473;52.286;20.930;2023-02-03T07:15:32;100449.13;;;2.74;74.96
30724;BME280;17473;52.286;20.930;2023-02-03T07:17:59;100445.69;;;3.15;73.18
30724;BME280;17473;52.286;20.930;2023-02-03T07:20:27;100445.00;;;4.16;70.28
30724;BME280;17473;52.286;20.930;2023-02-03T07:22:56;100439.19;;;6.08;63.57
30724;BME280;17473;52.286;20.930;2023-02-03T07:25:24;100435.34;;;6.52;60.22
30724;BME280;17473;52.286;20.930;2023-02-03T07:27:52;100428.63;;;5.90;61.24
30724;BME280;17473;52.286;20.930;2023-02-03T07:30:19;100429.44;;;5.72;61.91
30724;BME280;17473;52.286;20.930;2023-02-03T07:32:51;100430.28;;;5.40;62.96
30724;BME280;17473;52.286;20.930;2023-02-03T07:35:19;100427.16;;;5.30;63.07
30724;BME280;17473;52.286;20.930;2023-02-03T07:37:46;100427.44;;;5.52;62.23
30724;BME280;17473;52.286;20.930;2023-02-03T07:40:14;100421.47;;;5.87;61.40
30724;BME280;17473;52.286;20.930;2023-02-03T07:42:42;100412.78;;;5.88;61.40
30724;BME280;17473;52.286;20.930;2023-02-03T07:45:10;100415.34;;;5.87;60.95
30724;BME280;17473;52.286;20.930;2023-02-03T07:47:39;100410.03;;;6.18;59.96
30724;BME280;17473;52.286;20.930;2023-02-03T07:50:07;100409.16;;;6.36;59.24
30724;BME280;17473;52.286;20.930;2023-02-03T07:52:35;100393.69;;;6.58;58.91
30724;BME280;17473;52.286;20.930;2023-02-03T07:55:03;100394.47;;;6.74;58.74
30724;BME280;17473;52.286;20.930;2023-02-03T07:57:30;100389.66;;;6.83;57.63
30724;BME280;17473;52.286;20.930;2023-02-03T07:59:57;100384.28;;;7.18;57.09
30724;BME280;17473;52.286;20.930;2023-02-03T08:02:24;100373.28;;;7.64;55.40
30724;BME280;17473;52.286;20.930;2023-02-03T08:04:51;100370.25;;;7.94;54.15
30724;BME280;17473;52.286;20.930;2023-02-03T08:07:18;100378.69;;;8.07;53.94
30724;BME280;17473;52.286;20.930;2023-02-03T08:09:45;100378.41;;;7.81;54.16
30724;BME280;17473;52.286;20.930;2023-02-03T08:12:12;100371.69;;;7.68;53.87
30724;BME280;17473;52.286;20.930;2023-02-03T08:14:39;100364.69;;;8.08;53.20
30724;BME280;17473;52.286;20.930;2023-02-03T08:17:06;100366.50;;;8.30;52.57
30724;BME280;17473;52.286;20.930;2023-02-03T08:19:33;100358.19;;;8.61;52.24
30724;BME280;17473;52.286;20.930;2023-02-03T08:22:01;100352.66;;;8.76;51.63
30724;BME280;17473;52.286;20.930;2023-02-03T08:24:28;100351.16;;;8.60;50.95
30724;BME280;17473;52.286;20.930;2023-02-03T08:26:55;100340.03;;;8.46;51.39
30724;BME280;17473;52.286;20.930;2023-02-03T08:29:22;100341.13;;;8.30;51.46
30724;BME280;17473;52.286;20.930;2023-02-03T08:31:49;100345.78;;;8.38;50.64
30724;BME280;17473;52.286;20.930;2023-02-03T08:34:16;100341.59;;;8.43;50.81
30724;BME280;17473;52.286;20.930;2023-02-03T08:36:43;100336.69;;;8.29;50.70
30724;BME280;17473;52.286;20.930;2023-02-03T08:39:10;100330.47;;;8.49;49.88
30724;BME280;17473;52.286;20.930;2023-02-03T08:41:37;100324.75;;;8.59;50.13
30724;BME280;17473;52.286;20.930;2023-02-03T08:44:04;100318.63;;;8.58;49.91
30724;BME280;17473;52.286;20.930;2023-02-03T08:46:31;100312.44;;;8.58;49.92
30724;BME280;17473;52.286;20.930;2023-02-03T08:48:59;100313.06;;;8.73;49.03
30724;BME280;17473;52.286;20.930;2023-02-03T08:51:28;100305.94;;;9.16;48.63
30724;BME280;17473;52.286;20.930;2023-02-03T08:53:56;100301.53;;;9.39;47.91
30724;BME280;17473;52.286;20.930;2023-02-03T08:56:23;100293.53;;;9.36;47.46
30724;BME280;17473;52.286;20.930;2023-02-03T08:58:53;100294.78;;;9.23;47.69
30724;BME280;17473;52.286;20.930;2023-02-03T09:01:21;100290.25;;;9.19;47.74
30724;BME280;17473;52.286;20.930;2023-02-03T09:03:48;100280.03;;;9.27;47.95
30724;BME280;17473;52.286;20.930;2023-02-03T09:06:15;100275.91;;;9.11;47.83
30724;BME280;17473;52.286;20.930;2023-02-03T09:08:44;100273.53;;;8.95;47.99
30724;BME280;17473;52.286;20.930;2023-02-03T09:11:16;100259.53;;;8.96;47.39
30724;BME280;17473;52.286;20.930;2023-02-03T09:13:44;100259.91;;;9.06;47.43
30724;BME280;17473;52.286;20.930;2023-02-03T09:16:17;100259.56;;;8.97;47.30
30724;BME280;17473;52.286;20.930;2023-02-03T09:18:45;100264.78;;;8.96;47.55
30724;BME280;17473;52.286;20.930;2023-02-03T09:21:14;100253.94;;;8.88;46.95
30724;BME280;17473;52.286;20.930;2023-02-03T09:24:02;100248.03;;;8.93;46.76
30724;BME280;17473;52.286;20.930;2023-02-03T09:26:29;100242.28;;;8.81;46.15
30724;BME280;17473;52.286;20.930;2023-02-03T09:28:57;100240.00;;;8.90;46.29
30724;BME280;17473;52.286;20.930;2023-02-03T09:31:24;100228.75;;;8.95;46.35
30724;BME280;17473;52.286;20.930;2023-02-03T09:33:51;100222.69;;;8.74;46.24
30724;BME280;17473;52.286;20.930;2023-02-03T09:36:18;100211.16;;;8.71;45.77
30724;BME280;17473;52.286;20.930;2023-02-03T09:38:45;100204.53;;;8.58;45.93
30724;BME280;17473;52.286;20.930;2023-02-03T09:47:26;100188.25;;;8.91;44.87
30724;BME280;17473;52.286;20.930;2023-02-03T09:50:02;100181.63;;;9.27;43.77
30724;BME280;17473;52.286;20.930;2023-02-03T09:52:39;100162.53;;;9.34;43.49
30724;BME280;17473;52.286;20.930;2023-02-03T09:58:19;100161.63;;;9.32;43.45
30724;BME280;17473;52.286;20.930;2023-02-03T10:00:50;100157.53;;;9.16;43.42
30724;BME280;17473;52.286;20.930;2023-02-03T10:03:35;100137.41;;;8.93;43.66
30724;BME280;17473;52.286;20.930;2023-02-03T10:06:35;100138.97;;;8.88;43.57
30724;BME280;17473;52.286;20.930;2023-02-03T10:17:52;100101.94;;;9.87;42.28
30724;BME280;17473;52.286;20.930;2023-02-03T10:23:06;100093.47;;;9.70;41.74
30724;BME280;17473;52.286;20.930;2023-02-03T10:25:51;100087.75;;;9.83;41.36
30724;BME280;17473;52.286;20.930;2023-02-03T10:28:30;100085.09;;;9.56;41.29
30724;BME280;17473;52.286;20.930;2023-02-03T10:31:02;100070.00;;;9.24;41.61
30724;BME280;17473;52.286;20.930;2023-02-03T10:33:34;100065.88;;;9.07;41.78
30724;BME280;17473;52.286;20.930;2023-02-03T10:36:18;100053.66;;;8.59;42.91
30724;BME280;17473;52.286;20.930;2023-02-03T10:41:36;100041.44;;;8.37;43.58
30724;BME280;17473;52.286;20.930;2023-02-03T10:44:05;100034.31;;;8.34;43.96
30724;BME280;17473;52.286;20.930;2023-02-03T10:46:36;100028.59;;;8.46;43.95
30724;BME280;17473;52.286;20.930;2023-02-03T10:49:05;100028.69;;;8.48;43.51
30724;BME280;17473;52.286;20.930;2023-02-03T10:51:47;100012.97;;;8.49;43.48
30724;BME280;17473;52.286;20.930;2023-02-03T10:54:34;100002.09;;;8.40;43.53
30724;BME280;17473;52.286;20.930;2023-02-03T10:57:14;99990.56;;;8.36;43.39
30724;BME280;17473;52.286;20.930;2023-02-03T10:59:45;99981.75;;;8.36;43.71
30724;BME280;17473;52.286;20.930;2023-02-03T11:02:28;99979.34;;;8.18;43.59
30724;BME280;17473;52.286;20.930;2023-02-03T11:05:19;99977.84;;;7.77;44.01
30724;BME280;17473;52.286;20.930;2023-02-03T11:07:48;99952.88;;;7.43;44.34
30724;BME280;17473;52.286;20.930;2023-02-03T11:10:34;99941.31;;;7.38;44.40
30724;BME280;17473;52.286;20.930;2023-02-03T11:18:59;99889.03;;;6.79;46.44
30724;BME280;17473;52.286;20.930;2023-02-03T11:24:46;99889.06;;;6.58;47.04
30724;BME280;17473;52.286;20.930;2023-02-03T11:27:17;99881.03;;;6.55;47.42
30724;BME280;17473;52.286;20.930;2023-02-03T11:29:49;99876.56;;;6.52;47.44
30724;BME280;17473;52.286;20.930;2023-02-03T11:32:22;99850.97;;;6.25;48.23
30724;BME280;17473;52.286;20.930;2023-02-03T11:37:48;99824.44;;;6.18;48.84
30724;BME280;17473;52.286;20.930;2023-02-03T11:45:40;99813.69;;;5.92;49.15
30724;BME280;17473;52.286;20.930;2023-02-03T12:00:02;99796.38;;;5.55;50.21
30724;BME280;17473;52.286;20.930;2023-02-03T12:08:27;99776.56;;;5.61;49.82
30724;BME280;17473;52.286;20.930;2023-02-03T12:17:48;99748.53;;;5.39;50.38
30724;BME280;17473;52.286;20.930;2023-02-03T12:21:12;99744.50;;;5.47;50.60
30724;BME280;17473;52.286;20.930;2023-02-03T12:24:08;99733.00;;;5.44;50.82
30724;BME280;17473;52.286;20.930;2023-02-03T12:26:46;99727.47;;;5.36;50.94
30724;BME280;17473;52.286;20.930;2023-02-03T12:29:34;99735.56;;;5.42;50.80
30724;BME280;17473;52.286;20.930;2023-02-03T12:35:31;99716.50;;;5.25;50.86
30724;BME280;17473;52.286;20.930;2023-02-03T12:38:02;99711.59;;;5.33;51.03
30724;BME280;17473;52.286;20.930;2023-02-03T12:40:43;99713.19;;;5.10;51.33
30724;BME280;17473;52.286;20.930;2023-02-03T12:43:34;99688.75;;;5.09;51.47
30724;BME280;17473;52.286;20.930;2023-02-03T12:46:25;99689.16;;;4.99;51.52
30724;BME280;17473;52.286;20.930;2023-02-03T12:51:59;99654.69;;;4.88;52.05
30724;BME280;17473;52.286;20.930;2023-02-03T12:57:40;99639.59;;;4.82;52.48
30724;BME280;17473;52.286;20.930;2023-02-03T13:11:28;99592.16;;;4.55;55.51
30724;BME280;17473;52.286;20.930;2023-02-03T13:17:24;99567.28;;;4.44;58.44
30724;BME280;17473;52.286;20.930;2023-02-03T13:19:59;99555.53;;;4.35;59.18
30724;BME280;17473;52.286;20.930;2023-02-03T13:22:28;99557.13;;;4.32;59.74
30724;BME280;17473;52.286;20.930;2023-02-03T13:25:08;99536.91;;;4.28;59.83
30724;BME280;17473;52.286;20.930;2023-02-03T13:28:17;99525.13;;;4.18;60.86
30724;BME280;17473;52.286;20.930;2023-02-03T13:42:57;99488.59;;;3.80;66.20
30724;BME280;17473;52.286;20.930;2023-02-03T13:48:18;99469.31;;;3.58;68.19
30724;BME280;17473;52.286;20.930;2023-02-03T13:50:49;99470.63;;;3.50;69.03
30724;BME280;17473;52.286;20.930;2023-02-03T13:53:22;99464.00;;;3.57;69.31
30724;BME280;17473;52.286;20.930;2023-02-03T13:55:59;99457.59;;;3.50;69.68
30724;BME280;17473;52.286;20.930;2023-02-03T13:58:37;99459.75;;;3.41;70.69
30724;BME280;17473;52.286;20.930;2023-02-03T14:03:56;99442.06;;;3.16;72.17
30724;BME280;17473;52.286;20.930;2023-02-03T14:12:20;99421.56;;;3.05;74.78
30724;BME280;17473;52.286;20.930;2023-02-03T14:20:36;99402.56;;;2.90;76.30
30724;BME280;17473;52.286;20.930;2023-02-03T14:25:43;99389.53;;;2.90;76.82
30724;BME280;17473;52.286;20.930;2023-02-03T14:28:19;99392.84;;;2.69;77.66
30724;BME280;17473;52.286;20.930;2023-02-03T14:31:05;99369.16;;;2.64;78.84
30724;BME280;17473;52.286;20.930;2023-02-03T14:38:56;99370.38;;;2.71;78.66
30724;BME280;17473;52.286;20.930;2023-02-03T14:44:51;99356.66;;;2.57;79.82
30724;BME280;17473;52.286;20.930;2023-02-03T15:00:08;99342.72;;;2.57;80.69
30724;BME280;17473;52.286;20.930;2023-02-03T15:05:46;99318.56;;;2.25;81.38
30724;BME280;17473;52.286;20.930;2023-02-03T15:08:43;99320.06;;;2.38;81.16
30724;BME280;17473;52.286;20.930;2023-02-03T15:11:42;99318.88;;;2.31;81.65
30724;BME280;17473;52.286;20.930;2023-02-03T15:14:20;99317.94;;;2.12;82.13
30724;BME280;17473;52.286;20.930;2023-02-03T15:17:09;99306.59;;;2.28;82.70
30724;BME280;17473;52.286;20.930;2023-02-03T15:19:41;99305.47;;;2.23;82.24
30724;BME280;17473;52.286;20.930;2023-02-03T15:22:27;99306.19;;;2.02;83.36
30724;BME280;17473;52.286;20.930;2023-02-03T15:25:00;99294.09;;;1.86;84.07
30724;BME280;17473;52.286;20.930;2023-02-03T15:27:33;99288.34;;;1.76;84.91
30724;BME280;17473;52.286;20.930;2023-02-03T15:30:20;99300.59;;;1.78;86.30
30724;BME280;17473;52.286;20.930;2023-02-03T15:33:15;99289.06;;;1.73;86.20
30724;BME280;17473;52.286;20.930;2023-02-03T15:35:51;99278.75;;;1.58;86.86
30724;BME280;17473;52.286;20.930;2023-02-03T15:38:28;99278.03;;;1.61;87.32
30724;BME280;17473;52.286;20.930;2023-02-03T15:40:57;99273.16;;;1.50;87.41
30724;BME280;17473;52.286;20.930;2023-02-03T15:43:38;99267.78;;;1.64;87.14
30724;BME280;17473;52.286;20.930;2023-02-03T15:46:21;99269.72;;;1.68;87.83
30724;BME280;17473;52.286;20.930;2023-02-03T15:49:10;99263.06;;;1.73;87.39
30724;BME280;17473;52.286;20.930;2023-02-03T15:51:51;99257.72;;;1.88;86.65
30724;BME280;17473;52.286;20.930;2023-02-03T15:54:32;99249.81;;;1.86;87.48
30724;BME280;17473;52.286;20.930;2023-02-03T16:00:10;99247.94;;;1.66;88.18
30724;BME280;17473;52.286;20.930;2023-02-03T16:02:44;99241.47;;;1.76;87.56
30724;BME280;17473;52.286;20.930;2023-02-03T16:07:45;99230.63;;;1.50;89.36
30724;BME280;17473;52.286;20.930;2023-02-03T16:10:32;99233.44;;;1.71;89.11
30724;BME280;17473;52.286;20.930;2023-02-03T16:13:23;99236.34;;;1.77;89.01
30724;BME280;17473;52.286;20.930;2023-02-03T16:16:52;99234.72;;;1.79;89.05
30724;BME280;17473;52.286;20.930;2023-02-03T16:19:03;99234.47;;;1.75;89.46
30724;BME280;17473;52.286;20.930;2023-02-03T16:24:34;99220.59;;;1.92;88.29
30724;BME280;17473;52.286;20.930;2023-02-03T16:30:19;99213.25;;;1.83;88.62
30724;BME280;17473;52.286;20.930;2023-02-03T16:35:59;99202.16;;;1.87;88.76